KNFE

Fentress Nalf Airport

Fentress, Virginia, USA
METAR KNFE 161756Z AUTO VRB05KT 10SM CLR 12/02 A3013 RMK AO2 SLP204 T01170022 10117 21006 58025
Observed Flight Rules
Jan-16 @ 17:56 UTC (30 minutes ago) Visual Flight Rules
Wind Visibility Clouds
Variable at 5 knots 10 miles
  • Clear skies
Temperatures Readings
Current 12°C / 54°F
Dewpoint 2°C / 36°F
Humidity 51%
Altimeter 30.13" Hg
Pressure 1020.4 hPa
Elevation 5
METAR KNFE 161756Z AUTO VRB05KT 10SM CLR 12/02 A3013 RMK AO2 SLP204 T01170022 10117 21006 58025
Observed Flight Rules
Jan-16 @ 17:56 UTC
(30 minutes ago)
VFR
Wind Visibility
Variable at 5 knots 10 miles
Clouds
  • Clear skies
Temperature Dewpoint
12°C / 54°F 2°C / 36°F
Humidity Altimeter Pressure
51% 30.13" Hg 1020.4 hPa